• Join FlightAware (Why Join?)
  • Login
  • US Flag 
11:38AM EDT


 

Airport Tracker/Info


-or-


 

Live Flight TrackerFlight Track Log ✈ N202N ✈ 10-May-2013 ✈ KBED - KTTN

Flight Track Log - Related Links

Times and Time Zones

All times are in EDT time to prevent confusion due to time zone crossing. See the N202N flight status page for this flight to view local times or setup timezone preferences in your user account.

Time Position Orientation Groundspeed Altitude Reporting Facility
EDT Latitude Longitude Course Direction KTS MPH feet Rate Location/Type
09:33AM 42.4333 -71.3500 216° Southwest 216 249 3,800  Level KA90
09:35AM 42.3667 -71.3333 170° South 269 310 8,500 3,720 Climbing KA90
09:36AM 42.3000 -71.2500 137° Southeast 321 369 11,800 1,800 Climbing KA90
09:37AM 42.2833 -71.1333 101° East 353 406 12,100 300 Climbing KA90
09:38AM 42.2667 -71.0000 100° East 392 451 12,500 1,440 Climbing KA90
09:40AM 42.0625 -70.8797 156° South 407 468 16,800 2,220 Climbing Boston Center
09:41AM 41.9542 -70.8881 183° South 389 448 19,900 1,560 Climbing Boston Center
09:42AM 41.8292 -70.8967 183° South 411 473 20,000  Climbing Boston Center
09:43AM 41.7067 -70.9303 192° South 443 510 20,000  Level Boston Center
09:44AM 41.6186 -71.0517 226° Southwest 428 493 20,000  Level Boston Center
09:45AM 41.5283 -71.1672 224° Southwest 439 505 20,000  Level Boston Center
09:46AM 41.4542 -71.2519 221° Southwest 444 511 20,000  Level Boston Center
09:47AM 41.3431 -71.3839 222° Southwest 454 522 20,000  Level Boston Center
09:48AM 41.2481 -71.4931 221° Southwest 454 522 20,000  Level Boston Center
09:49AM 41.1553 -71.5964 220° Southwest 454 522 20,000  Level Boston Center
09:50AM 41.1061 -71.7406 246° West 426 490 20,000  Level Boston Center
09:51AM 41.0297 -71.8650 231° Southwest 436 502 20,000  Level Boston Center
09:52AM 40.9428 -71.9978 229° Southwest 442 509 20,000  Level Boston Center
09:53AM 40.8619 -72.1189 229° Southwest 442 509 20,000  Level Boston Center
09:54AM 40.7831 -72.2400 229° Southwest 437 503 20,000  Level Boston Center
09:55AM 40.6894 -72.3661 226° Southwest 437 503 20,000  Level Boston Center
09:56AM 40.6103 -72.4867 229° Southwest 442 509 20,000  Level Boston Center
09:57AM 40.5331 -72.6067 230° Southwest 442 509 20,000 -960 Level Boston Center
09:59AM 40.3383 -72.9058 230° Southwest 426 490 16,800 -1,200 Descending New York Center
10:00AM 40.2719 -73.0044 229° Southwest 415 478 16,000 -900 Descending New York Center
10:01AM 40.2294 -73.1472 249° West 393 452 15,000 -1,320 Descending New York Center
10:02AM 40.2036 -73.2822 256° West 388 447 13,400 -1,680 Descending New York Center
10:03AM 40.1431 -73.3939 235° Southwest 381 438 11,700 -2,220 Descending New York Center
10:04AM 40.0661 -73.4778 220° Southwest 368 423 9,100 -2,400 Descending New York Center
10:05AM 39.9897 -73.5264 206° Southwest 356 410 6,900 -2,220 Descending New York Center
10:06AM 39.9200 -73.5722 207° Southwest 325 374 4,600 -1,500 Descending New York Center
10:07AM 39.9178 -73.6586 268° West 227 261 4,000 -360 Descending New York Center
10:08AM 39.9514 -73.7386 299° West 213 245 4,000  Level New York Center
10:09AM 39.9847 -73.8158 299° West 232 267 4,000  Level New York Center
10:10AM 40.0178 -73.9067 295° West 237 273 4,000  Level New York Center
10:11AM 40.0447 -73.9922 292° West 244 281 4,000  Level New York Center
10:12AM 40.0714 -74.0775 292° West 256 295 4,000  Level New York Center
10:13AM 40.0942 -74.1544 291° West 256 295 4,000  Level New York Center
10:14AM 40.1208 -74.2400 292° West 256 295 4,000  Level New York Center
10:15AM 40.1494 -74.3311 292° West 251 289 4,000  Level New York Center
10:16AM 40.1761 -74.4167 292° West 256 295 4,000  Level New York Center
10:17AM 40.1986 -74.4911 292° West 256 295 4,000 -240 Level New York Center
10:18AM 40.2164 -74.5872 284° West 251 289 3,600 -600 Descending New York Center
10:19AM 40.2436 -74.6539 298° West 246 283 2,900 -300 Descending New York Center
10:20AM 40.2772 -74.7075 309° West 207 238 3,100 -480 Climbing New York Center
10:21AM 40.3069 -74.7528 311° West 175 201 2,000 -1,200 Descending New York Center
10:22AM 40.2908 -74.7953 244° Southwest 126 145 700 -1,320 Descending New York Center